This is the latest recevied weather packets stored in our database for station/object DL5DI-H. If no packets are shown the sender has not sent any weather packets the latest 10 day(s).
| Time | Temp. | Humidity | Pressure | Rain* | Wind** | Luminosity | Snow |
|---|---|---|---|---|---|---|---|
| 1777494601 | 13.89° C | 36% | 1026.8 hPa | 0 mm | - | - | - |
| 1777494001 | 13.89° C | 36% | 1026.7 hPa | 0 mm | - | - | - |
| 1777493401 | 14.44° C | 35% | 1026.5 hPa | 0 mm | - | - | - |
| 1777492201 | 14.44° C | 35% | 1026.3 hPa | 0 mm | - | - | - |
| 1777491601 | 16.11° C | 33% | 1025.5 hPa | 0 mm | - | - | - |
| 1777491001 | 16.11° C | 33% | 1025.5 hPa | 0 mm | - | - | - |
| 1777490401 | 16.11° C | 33% | 1025.5 hPa | 0 mm | - | - | - |
| 1777489805 | 16.11° C | 33% | 1025.5 hPa | 0 mm | - | - | - |
| 1777489205 | 16.11° C | 33% | 1025.5 hPa | 0 mm | - | - | - |
| 1777488600 | 16.67° C | 32% | 1025.5 hPa | 0 mm | - | - | - |
| 1777488001 | 16.67° C | 32% | 1025.3 hPa | 0 mm | - | - | - |
| 1777487405 | 17.22° C | 31% | 1025.2 hPa | 0 mm | - | - | - |
| 1777486801 | 17.78° C | 30% | 1025 hPa | 0 mm | - | - | - |
| 1777486201 | 18.33° C | 30% | 1024.9 hPa | 0 mm | - | - | - |
| 1777485604 | 18.89° C | 30% | 1024.8 hPa | 0 mm | - | - | - |
| 1777485001 | 19.44° C | 29% | 1024.8 hPa | 0 mm | - | - | - |
| 1777484405 | 21.11° C | 27% | 1024.5 hPa | 0 mm | - | - | - |
| 1777483801 | 21.11° C | 27% | 1024.5 hPa | 0 mm | - | - | - |
| 1777483205 | 21.11° C | 27% | 1024.5 hPa | 0 mm | - | - | - |
| 1777482601 | 21.11° C | 27% | 1024.5 hPa | 0 mm | - | - | - |
| 1777481405 | 21.11° C | 26% | 1024.5 hPa | 0 mm | - | - | - |
| 1777480800 | 21.67° C | 26% | 1024.6 hPa | 0 mm | - | - | - |
| 1777479605 | 21.11° C | 26% | 1024.4 hPa | 0 mm | - | - | - |
| 1777479005 | 21.67° C | 26% | 1024.4 hPa | 0 mm | - | - | - |
| 1777478401 | 21.67° C | 26% | 1024.4 hPa | 0 mm | - | - | - |
* Rain latest hour (hover to see other rain measurements)
** Current wind speed in m/s (hover to see current wind gust speed)